createdAt,value
2018-04-25T00:00:52.830Z,19.48
2018-04-25T00:02:02.309Z,19.47
2018-04-25T00:03:11.797Z,19.51
2018-04-25T00:04:21.276Z,19.48
2018-04-25T00:05:30.558Z,19.54
2018-04-25T00:06:40.039Z,19.5
2018-04-25T00:07:49.258Z,19.55
2018-04-25T00:08:58.746Z,19.47
2018-04-25T00:10:08.245Z,19.51
2018-04-25T00:11:18.016Z,19.56
2018-04-25T00:12:27.508Z,19.48
2018-04-25T00:13:36.990Z,19.51
2018-04-25T00:14:46.478Z,19.54
2018-04-25T00:15:56.406Z,19.51
2018-04-25T00:17:05.995Z,19.48
2018-04-25T00:18:15.489Z,19.5
2018-04-25T00:19:24.968Z,19.56
2018-04-25T00:20:34.182Z,19.48
2018-04-25T00:21:43.402Z,19.48
2018-04-25T00:22:52.884Z,19.5
2018-04-25T00:24:02.103Z,19.46
2018-04-25T00:25:11.859Z,19.43
2018-04-25T00:26:21.618Z,19.5
2018-04-25T00:27:31.096Z,19.46
2018-04-25T00:28:40.041Z,19.46
2018-04-25T00:29:49.543Z,19.41
2018-04-25T00:30:59.031Z,19.47
2018-04-25T00:32:08.259Z,19.47
2018-04-25T00:33:17.744Z,19.39
2018-04-25T00:34:26.960Z,19.43
2018-04-25T00:35:36.716Z,19.37
2018-04-25T00:36:45.676Z,19.4
2018-04-25T00:37:54.891Z,19.39
2018-04-25T00:39:04.911Z,19.36
2018-04-25T00:40:14.395Z,19.37
2018-04-25T00:41:24.148Z,19.43
2018-04-25T00:42:33.100Z,19.33
2018-04-25T00:43:42.847Z,19.46
2018-04-25T00:44:52.595Z,19.41
2018-04-25T00:46:02.344Z,19.4
2018-04-25T00:47:12.094Z,19.4
2018-04-25T00:48:21.851Z,19.32
2018-04-25T00:49:31.340Z,19.4
2018-04-25T00:50:40.553Z,19.39
2018-04-25T00:51:49.502Z,19.36
2018-04-25T00:52:58.988Z,19.41
2018-04-25T00:54:09.015Z,19.39
2018-04-25T00:55:18.243Z,19.4
2018-04-25T00:56:27.191Z,19.39
2018-04-25T00:57:36.679Z,19.36
2018-04-25T00:58:46.485Z,19.36
2018-04-25T00:59:55.968Z,19.36
2018-04-25T01:01:05.271Z,19.36
2018-04-25T01:02:15.035Z,19.25
2018-04-25T01:03:23.983Z,19.28
2018-04-25T01:04:33.198Z,19.37
2018-04-25T01:05:42.949Z,19.26
2018-04-25T01:06:52.490Z,19.36
2018-04-25T01:08:01.967Z,19.26
2018-04-25T01:09:11.456Z,19.28
2018-04-25T01:10:20.949Z,19.28
2018-04-25T01:11:30.427Z,19.28
2018-04-25T01:12:40.183Z,19.33
2018-04-25T01:13:49.930Z,19.26
2018-04-25T01:14:59.417Z,19.33
2018-04-25T01:16:08.909Z,19.26
2018-04-25T01:17:18.920Z,19.21
2018-04-25T01:18:28.675Z,19.25
2018-04-25T01:19:38.151Z,19.37
2018-04-25T01:20:47.411Z,19.32
2018-04-25T01:21:56.728Z,19.26
2018-04-25T01:23:06.476Z,19.26
2018-04-25T01:24:15.695Z,19.36
2018-04-25T01:25:25.179Z,19.31
2018-04-25T01:26:34.667Z,19.26
2018-04-25T01:27:44.425Z,19.26
2018-04-25T01:28:53.906Z,19.29
2018-04-25T01:30:03.122Z,19.28
2018-04-25T01:31:12.072Z,19.33
2018-04-25T01:32:21.559Z,19.28
2018-04-25T01:33:30.512Z,19.33
2018-04-25T01:34:39.999Z,19.29
2018-04-25T01:35:49.489Z,19.25
2018-04-25T01:36:58.974Z,19.29
2018-04-25T01:38:08.456Z,19.33
2018-04-25T01:39:17.669Z,19.29
2018-04-25T01:40:26.897Z,19.31
2018-04-25T01:41:36.112Z,19.36
2018-04-25T01:42:45.331Z,19.37
2018-04-25T01:43:54.816Z,19.32
2018-04-25T01:45:04.574Z,19.32
2018-04-25T01:46:14.633Z,19.32
2018-04-25T01:47:24.123Z,19.31
2018-04-25T01:48:33.606Z,19.36
2018-04-25T01:49:42.826Z,19.39
2018-04-25T01:50:52.577Z,19.31
2018-04-25T01:52:01.802Z,19.29
2018-04-25T01:53:11.546Z,19.32
2018-04-25T01:54:21.026Z,19.26
2018-04-25T01:55:30.782Z,19.31
2018-04-25T01:56:40.264Z,19.31
2018-04-25T01:57:49.755Z,19.32
2018-04-25T01:58:59.507Z,19.28
2018-04-25T02:00:08.454Z,19.26
2018-04-25T02:01:18.230Z,19.25
2018-04-25T02:02:27.711Z,19.28
2018-04-25T02:03:37.729Z,19.21
2018-04-25T02:04:46.952Z,19.28
2018-04-25T02:05:56.435Z,19.22
2018-04-25T02:07:06.020Z,19.26
2018-04-25T02:08:15.503Z,19.21
2018-04-25T02:09:25.018Z,19.25
2018-04-25T02:10:34.504Z,19.22
2018-04-25T02:11:43.985Z,19.26
2018-04-25T02:12:53.199Z,19.23
2018-04-25T02:14:02.689Z,19.1
2018-04-25T02:15:11.904Z,19.28
2018-04-25T02:16:21.397Z,19.25
2018-04-25T02:17:31.410Z,19.25
2018-04-25T02:18:41.180Z,19.28
2018-04-25T02:19:50.929Z,19.26
2018-04-25T02:21:00.214Z,19.31
2018-04-25T02:22:09.703Z,19.32
2018-04-25T02:23:18.919Z,19.18
2018-04-25T02:24:28.416Z,19.14
2018-04-25T02:25:37.897Z,19.25
2018-04-25T02:26:47.116Z,19.29
2018-04-25T02:27:56.597Z,19.29
2018-04-25T02:29:06.078Z,19.16
2018-04-25T02:30:16.098Z,19.22
2018-04-25T02:31:26.126Z,19.25
2018-04-25T02:32:35.713Z,19.23
2018-04-25T02:33:45.749Z,19.18
2018-04-25T02:34:55.234Z,19.23
2018-04-25T02:36:04.733Z,19.26
2018-04-25T02:37:13.976Z,19.22
2018-04-25T02:38:24.001Z,19.23
2018-04-25T02:39:33.487Z,19.19
2018-04-25T02:40:43.552Z,19.22
2018-04-25T02:41:53.327Z,19.25
2018-04-25T02:43:03.064Z,19.21
2018-04-25T02:44:12.555Z,19.14
2018-04-25T02:45:22.597Z,19.22
2018-04-25T02:46:32.354Z,19.22
2018-04-25T02:47:41.847Z,19.19
2018-04-25T02:48:51.062Z,19.22
2018-04-25T02:50:00.832Z,19.25
2018-04-25T02:51:10.056Z,19.18
2018-04-25T02:52:20.080Z,19.1
2018-04-25T02:53:30.097Z,19.19
2018-04-25T02:54:39.591Z,19.23
2018-04-25T02:55:49.338Z,19.18
2018-04-25T02:56:58.831Z,19.1
2018-04-25T02:58:08.324Z,19.11
2018-04-25T02:59:18.109Z,19.21
2018-04-25T03:00:27.873Z,19.11
2018-04-25T03:01:37.760Z,19.16
2018-04-25T03:02:47.543Z,19.18
2018-04-25T03:03:57.306Z,19.16
2018-04-25T03:05:06.817Z,19.18
2018-04-25T03:06:16.588Z,19.16
2018-04-25T03:07:26.077Z,19.18
2018-04-25T03:08:35.039Z,19.16
2018-04-25T03:09:45.094Z,19.13
2018-04-25T03:10:54.584Z,19.16
2018-04-25T03:12:04.080Z,19.21
2018-04-25T03:13:13.317Z,19.14
2018-04-25T03:14:22.558Z,19.21
2018-04-25T03:15:32.061Z,19.1
2018-04-25T03:16:41.834Z,19.16
2018-04-25T03:17:51.646Z,19.11
2018-04-25T03:19:01.142Z,19.14
2018-04-25T03:20:10.641Z,19.11
2018-04-25T03:21:20.403Z,19.07
2018-04-25T03:22:29.679Z,19.18
2018-04-25T03:23:39.271Z,19.14
2018-04-25T03:24:49.310Z,19.1
2018-04-25T03:25:59.077Z,19.11
2018-04-25T03:27:09.117Z,19.11
2018-04-25T03:28:19.154Z,19.1
2018-04-25T03:29:28.923Z,19.13
2018-04-25T03:30:38.428Z,19.11
2018-04-25T03:31:48.220Z,19.08
2018-04-25T03:32:57.992Z,19
2018-04-25T03:34:07.488Z,19.11
2018-04-25T03:35:17.252Z,19.1
2018-04-25T03:36:26.749Z,19.1
2018-04-25T03:37:36.527Z,19.13
2018-04-25T03:38:45.484Z,19.1
2018-04-25T03:39:55.256Z,19.16
2018-04-25T03:41:05.204Z,19.06
2018-04-25T03:42:15.479Z,19.14
2018-04-25T03:43:24.980Z,19.16
2018-04-25T03:44:34.215Z,19.07
2018-04-25T03:45:43.442Z,19.02
2018-04-25T03:46:53.210Z,19.06
2018-04-25T03:48:02.696Z,19.1
2018-04-25T03:49:11.916Z,19.07
2018-04-25T03:50:21.158Z,18.99
2018-04-25T03:51:30.915Z,19.1
2018-04-25T03:52:40.405Z,19
2018-04-25T03:53:49.918Z,19.06
2018-04-25T03:54:59.149Z,19.07
2018-04-25T03:56:08.380Z,19.02
2018-04-25T03:57:18.148Z,19.02
2018-04-25T03:58:27.109Z,19.07
2018-04-25T03:59:36.869Z,19.04
2018-04-25T04:00:46.364Z,19.06
2018-04-25T04:01:55.857Z,19.04
2018-04-25T04:03:05.625Z,19
2018-04-25T04:04:15.121Z,19.07
2018-04-25T04:05:24.085Z,19.02
2018-04-25T04:06:33.316Z,18.99
2018-04-25T04:07:42.808Z,19.04
2018-04-25T04:08:52.050Z,19.02
2018-04-25T04:10:01.554Z,18.94
2018-04-25T04:11:10.514Z,19.02
2018-04-25T04:12:19.736Z,19.02
2018-04-25T04:13:29.500Z,19.04
2018-04-25T04:14:38.721Z,18.99
2018-04-25T04:15:48.215Z,19.04
2018-04-25T04:16:57.977Z,18.99
2018-04-25T04:18:07.465Z,19
2018-04-25T04:19:16.959Z,19.06
2018-04-25T04:20:26.451Z,19.07
2018-04-25T04:21:36.235Z,19.02
2018-04-25T04:22:45.465Z,18.94
2018-04-25T04:23:54.695Z,18.99
2018-04-25T04:25:03.661Z,18.98
2018-04-25T04:26:13.171Z,18.98
2018-04-25T04:27:22.662Z,19.06
2018-04-25T04:28:31.352Z,19.08
2018-04-25T04:29:40.847Z,18.99
2018-04-25T04:30:50.624Z,19.02
2018-04-25T04:31:59.852Z,19.04
2018-04-25T04:33:09.092Z,19.06
2018-04-25T04:34:18.589Z,19.02
2018-04-25T04:35:28.077Z,19.02
2018-04-25T04:36:37.305Z,18.98
2018-04-25T04:37:47.068Z,19.02
2018-04-25T04:38:56.828Z,19.02
2018-04-25T04:40:06.056Z,19.11
2018-04-25T04:41:15.280Z,19.02
2018-04-25T04:42:24.789Z,19.02
2018-04-25T04:43:34.013Z,19.02
2018-04-25T04:44:43.238Z,19.02
2018-04-25T04:45:53.005Z,19.06
2018-04-25T04:47:02.499Z,19
2018-04-25T04:48:11.996Z,19
2018-04-25T04:49:21.488Z,19
2018-04-25T04:50:30.742Z,19.04
2018-04-25T04:51:40.239Z,19
2018-04-25T04:52:49.198Z,19.04
2018-04-25T04:53:58.974Z,18.99
2018-04-25T04:55:08.200Z,19.08
2018-04-25T04:56:17.443Z,19.06
2018-04-25T04:57:27.203Z,18.98
2018-04-25T04:58:36.693Z,19.04
2018-04-25T04:59:46.641Z,19.11
2018-04-25T05:00:56.445Z,19.06
2018-04-25T05:02:05.676Z,19.08
2018-04-25T05:03:14.638Z,19.04
2018-04-25T05:04:23.945Z,19.04
2018-04-25T05:05:33.712Z,19.02
2018-04-25T05:06:43.211Z,19.06
2018-04-25T05:07:52.439Z,19.07
2018-04-25T05:09:01.665Z,19.04
2018-04-25T05:10:10.899Z,19.1
2018-04-25T05:11:20.664Z,19.06
2018-04-25T05:12:30.429Z,19.08
2018-04-25T05:13:39.924Z,19.21
2018-04-25T05:14:49.155Z,19.11
2018-04-25T05:15:58.374Z,19.11
2018-04-25T05:17:08.472Z,19.1
2018-04-25T05:18:18.229Z,19.14
2018-04-25T05:19:27.743Z,19.11
2018-04-25T05:20:37.233Z,19.1
2018-04-25T05:21:47.001Z,19.1
2018-04-25T05:22:56.501Z,19.11
2018-04-25T05:24:06.259Z,19.07
2018-04-25T05:25:15.754Z,19.11
2018-04-25T05:26:25.255Z,19.25
2018-04-25T05:27:34.487Z,19.13
2018-04-25T05:28:43.448Z,19.1
2018-04-25T05:29:52.138Z,19.23
2018-04-25T05:31:01.635Z,19.1
2018-04-25T05:32:11.106Z,19.13
2018-04-25T05:33:20.778Z,19.18
2018-04-25T05:34:29.737Z,19.1
2018-04-25T05:35:39.236Z,19.18
2018-04-25T05:36:48.743Z,19.1
2018-04-25T05:37:58.253Z,19.06
2018-04-25T05:39:07.484Z,19.13
2018-04-25T05:40:16.721Z,19.1
2018-04-25T05:41:25.945Z,19.1
2018-04-25T05:42:35.449Z,19.21
2018-04-25T05:43:45.478Z,19.19
2018-04-25T05:44:55.251Z,19.13
2018-04-25T05:46:04.587Z,19.1
2018-04-25T05:47:14.315Z,19.16
2018-04-25T05:48:24.071Z,19.14
2018-04-25T05:49:33.577Z,19.1
2018-04-25T05:50:42.533Z,19.22
2018-04-25T05:51:52.218Z,19.16
2018-04-25T05:53:01.720Z,19.18
2018-04-25T05:54:10.951Z,19.16
2018-04-25T05:55:20.181Z,19.14
2018-04-25T05:56:30.035Z,19.13
2018-04-25T05:57:39.534Z,19.1
2018-04-25T05:58:48.761Z,19.13
2018-04-25T05:59:57.982Z,19.11
2018-04-25T06:01:07.210Z,19.11
2018-04-25T06:02:16.709Z,19.18
2018-04-25T06:03:26.207Z,19.19
2018-04-25T06:04:36.045Z,19.13
2018-04-25T06:05:45.277Z,19.16
2018-04-25T06:06:54.497Z,19.14
2018-04-25T06:08:03.456Z,19.14
2018-04-25T06:09:13.485Z,19.16
2018-04-25T06:10:22.976Z,19.13
2018-04-25T06:11:32.204Z,19.21
2018-04-25T06:12:42.440Z,19.21
2018-04-25T06:13:51.936Z,19.16
2018-04-25T06:15:01.429Z,19.18
2018-04-25T06:16:11.194Z,19.21
2018-04-25T06:17:20.164Z,19.22
2018-04-25T06:18:29.668Z,19.18
2018-04-25T06:19:39.155Z,19.22
2018-04-25T06:20:48.665Z,19.21
2018-04-25T06:21:57.900Z,19.19
2018-04-25T06:23:07.395Z,19.21
2018-04-25T06:24:16.357Z,19.18
2018-04-25T06:25:26.118Z,19.13
2018-04-25T06:26:35.549Z,19.11
2018-04-25T06:27:44.528Z,19.1
2018-04-25T06:28:53.752Z,19.08
2018-04-25T06:30:02.983Z,19.22
2018-04-25T06:31:12.211Z,19.16
2018-04-25T06:32:21.704Z,19.21
2018-04-25T06:33:31.459Z,19.18
2018-04-25T06:34:40.425Z,19.13
2018-04-25T06:35:50.193Z,19.19
2018-04-25T06:36:59.152Z,19.14
2018-04-25T06:38:08.649Z,19.18
2018-04-25T06:39:17.884Z,19.18
2018-04-25T06:40:27.746Z,19.11
2018-04-25T06:41:37.519Z,19.19
2018-04-25T06:42:47.008Z,19.18
2018-04-25T06:43:56.519Z,19.1
2018-04-25T06:45:06.253Z,19.21
2018-04-25T06:46:15.926Z,19.18
2018-04-25T06:47:25.418Z,19.16
2018-04-25T06:48:34.915Z,19.11
2018-04-25T06:49:44.672Z,19.21
2018-04-25T06:50:54.168Z,19.14
2018-04-25T06:52:03.933Z,19.14
2018-04-25T06:53:13.438Z,19.22
2018-04-25T06:54:22.665Z,19.18
2018-04-25T06:55:31.891Z,19.18
2018-04-25T06:56:41.802Z,19.13
2018-04-25T06:57:51.786Z,19.11
2018-04-25T06:59:01.040Z,19.22
2018-04-25T07:00:10.543Z,19.19
2018-04-25T07:01:20.041Z,19.11
2018-04-25T07:02:30.069Z,19.21
2018-04-25T07:03:39.561Z,19.14
2018-04-25T07:04:49.323Z,19.16
2018-04-25T07:05:58.818Z,19.13
2018-04-25T07:07:08.050Z,19.19
2018-04-25T07:08:17.787Z,19.1
2018-04-25T07:09:27.218Z,19.16
2018-04-25T07:10:36.716Z,19.19
2018-04-25T07:11:46.212Z,19.19
2018-04-25T07:12:55.716Z,19.18
2018-04-25T07:14:04.765Z,19.18
2018-04-25T07:15:14.256Z,19.21
2018-04-25T07:16:23.760Z,19.14
2018-04-25T07:17:33.794Z,19.13
2018-04-25T07:18:43.299Z,19.21
2018-04-25T07:19:53.065Z,19.08
2018-04-25T07:21:02.020Z,19.16
2018-04-25T07:22:11.515Z,19.14
2018-04-25T07:23:21.019Z,19.13
2018-04-25T07:24:30.513Z,19.14
2018-04-25T07:25:40.003Z,19.14
2018-04-25T07:26:50.042Z,19.25
2018-04-25T07:27:59.547Z,19.13
2018-04-25T07:29:09.041Z,19.19
2018-04-25T07:30:18.811Z,19.28
2018-04-25T07:31:28.303Z,19.28
2018-04-25T07:32:38.066Z,19.31
2018-04-25T07:33:47.833Z,19.22
2018-04-25T07:34:57.592Z,19.26
2018-04-25T07:36:06.561Z,19.21
2018-04-25T07:37:15.797Z,19.26
2018-04-25T07:38:25.555Z,19.26
2018-04-25T07:39:34.861Z,19.26
2018-04-25T07:40:44.090Z,19.29
2018-04-25T07:41:54.199Z,19.28
2018-04-25T07:43:04.626Z,19.29
2018-04-25T07:44:14.130Z,19.22
2018-04-25T07:45:23.897Z,19.25
2018-04-25T07:46:33.666Z,19.28
2018-04-25T07:47:43.166Z,19.13
2018-04-25T07:48:53.195Z,19.25
2018-04-25T07:50:02.148Z,19.22
2018-04-25T07:51:11.374Z,19.22
2018-04-25T07:52:21.116Z,19.14
2018-04-25T07:53:30.223Z,19.26
2018-04-25T07:54:39.994Z,19.23
2018-04-25T07:55:48.954Z,19.25
2018-04-25T07:56:58.178Z,19.13
2018-04-25T07:58:07.136Z,19.25
2018-04-25T07:59:16.630Z,19.25
2018-04-25T08:00:26.126Z,19.22
2018-04-25T08:01:36.166Z,19.28
2018-04-25T08:02:46.196Z,19.28
2018-04-25T08:03:55.162Z,19.25
2018-04-25T08:05:04.387Z,19.21
2018-04-25T08:06:13.617Z,19.23
2018-04-25T08:07:23.122Z,19.21
2018-04-25T08:08:32.617Z,19.25
2018-04-25T08:09:42.375Z,19.14
2018-04-25T08:10:51.329Z,19.28
2018-04-25T08:12:00.559Z,19.28
2018-04-25T08:13:09.859Z,19.18
2018-04-25T08:14:19.624Z,19.14
2018-04-25T08:15:28.844Z,19.18
2018-04-25T08:16:38.077Z,19.22
2018-04-25T08:17:47.841Z,19.16
2018-04-25T08:18:57.680Z,19.16
2018-04-25T08:20:07.179Z,19.19
2018-04-25T08:21:16.673Z,19.23
2018-04-25T08:22:26.166Z,19.19
2018-04-25T08:23:35.391Z,19.21
2018-04-25T08:24:44.928Z,19.22
2018-04-25T08:25:54.428Z,19.22
2018-04-25T08:27:04.190Z,19.16
2018-04-25T08:28:13.953Z,19.18
2018-04-25T08:29:23.179Z,19.13
2018-04-25T08:30:32.135Z,19.07
2018-04-25T08:31:41.920Z,19.14
2018-04-25T08:32:51.422Z,19.13
2018-04-25T08:34:00.922Z,19.1
2018-04-25T08:35:10.417Z,19.16
2018-04-25T08:36:19.645Z,19.1
2018-04-25T08:37:29.408Z,19.21
2018-04-25T08:38:39.179Z,19.14
2018-04-25T08:39:48.137Z,19.13
2018-04-25T08:40:57.627Z,19.06
2018-04-25T08:42:06.851Z,19.16
2018-04-25T08:43:16.356Z,19.11
2018-04-25T08:44:26.121Z,19.11
2018-04-25T08:45:35.341Z,19.08
2018-04-25T08:46:44.297Z,19.1
2018-04-25T08:47:53.785Z,18.99
2018-04-25T08:49:03.278Z,19.06
2018-04-25T08:50:11.969Z,19.11
2018-04-25T08:51:21.200Z,19.07
2018-04-25T08:52:31.249Z,19.08
2018-04-25T08:53:40.208Z,18.99
2018-04-25T08:54:49.699Z,19.02
2018-04-25T08:55:59.188Z,19.1
2018-04-25T08:57:08.679Z,19.04
2018-04-25T08:58:18.182Z,19.02
2018-04-25T08:59:27.968Z,19.06
2018-04-25T09:00:36.932Z,19.04
2018-04-25T09:01:46.156Z,19
2018-04-25T09:02:55.655Z,18.98
2018-04-25T09:04:04.883Z,19.06
2018-04-25T09:05:14.378Z,18.99
2018-04-25T09:06:24.141Z,19.04
2018-04-25T09:07:33.400Z,19.02
2018-04-25T09:08:43.453Z,19.04
2018-04-25T09:09:52.955Z,18.99
2018-04-25T09:11:02.185Z,19.02
2018-04-25T09:12:11.142Z,19
2018-04-25T09:13:20.640Z,19
2018-04-25T09:14:30.217Z,19.04
2018-04-25T09:15:39.220Z,19.07
2018-04-25T09:16:48.989Z,19
2018-04-25T09:17:57.952Z,18.99
2018-04-25T09:19:07.720Z,19.02
2018-04-25T09:20:17.616Z,19.08
2018-04-25T09:21:27.258Z,19.06
2018-04-25T09:22:36.764Z,19
2018-04-25T09:23:45.987Z,18.98
2018-04-25T09:24:54.951Z,19.02
2018-04-25T09:26:04.746Z,19.04
2018-04-25T09:27:14.511Z,18.94
2018-04-25T09:28:23.474Z,18.91
2018-04-25T09:29:32.979Z,18.88
2018-04-25T09:30:42.753Z,18.94
2018-04-25T09:31:51.982Z,18.9
2018-04-25T09:33:01.211Z,18.98
2018-04-25T09:34:10.979Z,19.04
2018-04-25T09:35:20.742Z,18.99
2018-04-25T09:36:29.724Z,19.02
2018-04-25T09:37:38.681Z,18.94
2018-04-25T09:38:47.904Z,18.92
2018-04-25T09:39:57.394Z,19.04
2018-04-25T09:41:07.153Z,19
2018-04-25T09:42:16.640Z,19.02
2018-04-25T09:43:25.878Z,19.02
2018-04-25T09:44:35.364Z,19
2018-04-25T09:45:45.393Z,19.07
2018-04-25T09:46:54.619Z,19
2018-04-25T09:48:04.384Z,18.99
2018-04-25T09:49:14.428Z,18.88
2018-04-25T09:50:23.939Z,19.06
2018-04-25T09:51:33.427Z,18.95
2018-04-25T09:52:42.655Z,18.92
2018-04-25T09:53:52.414Z,18.92
2018-04-25T09:55:01.911Z,18.95
2018-04-25T09:56:11.424Z,18.91
2018-04-25T09:57:21.192Z,18.94
2018-04-25T09:58:30.786Z,18.95
2018-04-25T09:59:40.291Z,18.94
2018-04-25T10:00:49.526Z,18.92
2018-04-25T10:01:59.014Z,18.94
2018-04-25T10:03:08.236Z,19.06
2018-04-25T10:04:17.735Z,18.91
2018-04-25T10:05:26.961Z,18.91
2018-04-25T10:06:36.727Z,18.95
2018-04-25T10:07:46.494Z,18.99
2018-04-25T10:08:55.720Z,18.95
2018-04-25T10:10:04.678Z,18.94
2018-04-25T10:11:14.455Z,19
2018-04-25T10:12:24.214Z,18.91
2018-04-25T10:13:33.446Z,19.02
2018-04-25T10:14:42.679Z,19
2018-04-25T10:15:52.700Z,19
2018-04-25T10:17:02.307Z,19.02
2018-04-25T10:18:11.822Z,18.99
2018-04-25T10:19:21.060Z,18.95
2018-04-25T10:20:30.015Z,18.99
2018-04-25T10:21:38.705Z,18.92
2018-04-25T10:22:48.224Z,19.04
2018-04-25T10:23:57.479Z,19.06
2018-04-25T10:25:06.743Z,18.98
2018-04-25T10:26:15.969Z,19
2018-04-25T10:27:25.192Z,19.06
2018-04-25T10:28:34.961Z,18.95
2018-04-25T10:29:44.451Z,18.99
2018-04-25T10:30:54.216Z,19.04
2018-04-25T10:32:03.800Z,18.99
2018-04-25T10:33:14.017Z,19.06
2018-04-25T10:34:23.242Z,19.07
2018-04-25T10:35:32.513Z,18.99
2018-04-25T10:36:42.011Z,19
2018-04-25T10:37:51.512Z,19.02
2018-04-25T10:39:00.813Z,19
2018-04-25T10:40:10.306Z,19.02
2018-04-25T10:41:19.528Z,19.02
2018-04-25T10:42:29.285Z,19.02
2018-04-25T10:43:38.509Z,19.06
2018-04-25T10:44:48.003Z,18.99
2018-04-25T10:45:57.500Z,19
2018-04-25T10:47:06.458Z,18.99
2018-04-25T10:48:16.487Z,19.07
2018-04-25T10:49:26.520Z,19.08
2018-04-25T10:50:35.745Z,19.1
2018-04-25T10:51:45.236Z,19.06
2018-04-25T10:52:54.735Z,18.95
2018-04-25T10:54:03.963Z,18.99
2018-04-25T10:55:13.458Z,19.1
2018-04-25T10:56:22.742Z,19.06
2018-04-25T10:57:31.969Z,19.02
2018-04-25T10:58:41.728Z,19
2018-04-25T10:59:50.957Z,19.04
2018-04-25T11:01:00.987Z,19.04
2018-04-25T11:02:10.215Z,19.13
2018-04-25T11:03:19.171Z,19.08
2018-04-25T11:04:28.782Z,19.07
2018-04-25T11:05:38.547Z,19.1
2018-04-25T11:06:47.777Z,19.1
2018-04-25T11:07:57.544Z,19.14
2018-04-25T11:09:06.781Z,19.06
2018-04-25T11:10:16.012Z,19.07
2018-04-25T11:11:25.506Z,19.18
2018-04-25T11:12:34.751Z,19.1
2018-04-25T11:13:43.981Z,19.02
2018-04-25T11:14:53.475Z,19.08
2018-04-25T11:16:03.240Z,19.14
2018-04-25T11:17:12.468Z,19.04
2018-04-25T11:18:22.497Z,19.06
2018-04-25T11:19:32.039Z,19.19
2018-04-25T11:20:41.530Z,19.13
2018-04-25T11:21:50.225Z,19.08
2018-04-25T11:22:59.453Z,19.08
2018-04-25T11:24:08.942Z,19.16
2018-04-25T11:25:18.167Z,19
2018-04-25T11:26:27.117Z,19.1
2018-04-25T11:27:36.907Z,19.1
2018-04-25T11:28:46.402Z,19.14
2018-04-25T11:29:55.362Z,19.13
2018-04-25T11:31:04.590Z,19.11
2018-04-25T11:32:13.548Z,19.16
2018-04-25T11:33:22.514Z,19.08
2018-04-25T11:34:31.744Z,19.13
2018-04-25T11:35:41.240Z,19.07
2018-04-25T11:36:50.733Z,19.14
2018-04-25T11:37:59.696Z,19.07
2018-04-25T11:39:09.194Z,19.1
2018-04-25T11:40:18.418Z,19.07
2018-04-25T11:41:27.642Z,19.16
2018-04-25T11:42:37.154Z,19.18
2018-04-25T11:43:46.644Z,19.16
2018-04-25T11:44:56.401Z,19.14
2018-04-25T11:46:05.897Z,19.14
2018-04-25T11:47:15.811Z,19.07
2018-04-25T11:48:25.679Z,19.16
2018-04-25T11:49:34.909Z,19.18
2018-04-25T11:50:44.143Z,19.11
2018-04-25T11:51:53.371Z,19.1
2018-04-25T11:53:02.869Z,19.22
2018-04-25T11:54:11.826Z,19.16
2018-04-25T11:55:21.333Z,19.16
2018-04-25T11:56:30.559Z,19.16
2018-04-25T11:57:39.787Z,19.14
2018-04-25T11:58:49.023Z,19.11
2018-04-25T11:59:58.792Z,19.13
2018-04-25T12:01:08.022Z,19.22
2018-04-25T12:02:17.515Z,19.1
2018-04-25T12:03:27.267Z,19.14
2018-04-25T12:04:36.769Z,19.18
2018-04-25T12:05:46.810Z,19.14
2018-04-25T12:06:56.841Z,19.14
2018-04-25T12:08:06.064Z,19.14
2018-04-25T12:09:15.554Z,19.13
2018-04-25T12:10:24.510Z,19.18
2018-04-25T12:11:34.341Z,19.16
2018-04-25T12:12:43.577Z,19.18
2018-04-25T12:13:53.068Z,19.14
2018-04-25T12:15:02.900Z,19.13
2018-04-25T12:16:12.667Z,19.16
2018-04-25T12:17:21.893Z,19.18
2018-04-25T12:18:30.849Z,19.22
2018-04-25T12:19:40.080Z,19.1
2018-04-25T12:20:49.309Z,19.14
2018-04-25T12:21:58.540Z,19.1
2018-04-25T12:23:07.769Z,19.11
2018-04-25T12:24:17.645Z,19.13
2018-04-25T12:25:27.759Z,19.1
2018-04-25T12:26:36.720Z,19.08
2018-04-25T12:27:45.947Z,19.13
2018-04-25T12:28:54.905Z,19.13
2018-04-25T12:30:03.862Z,19.13
2018-04-25T12:31:12.824Z,19.11
2018-04-25T12:32:22.324Z,19.14
2018-04-25T12:33:31.282Z,19.14
2018-04-25T12:34:40.780Z,19.23
2018-04-25T12:35:50.394Z,19.19
2018-04-25T12:37:00.107Z,19.22
2018-04-25T12:38:09.614Z,19.23
2018-04-25T12:39:19.112Z,19.25
2018-04-25T12:40:28.889Z,19.16
2018-04-25T12:41:39.161Z,19.22
2018-04-25T12:42:49.239Z,19.23
2018-04-25T12:43:58.740Z,19.25
2018-04-25T12:45:07.966Z,19.21
2018-04-25T12:46:17.189Z,19.13
2018-04-25T12:47:26.949Z,19.21
2018-04-25T12:48:36.708Z,19.28
2018-04-25T12:49:46.204Z,19.28
2018-04-25T12:50:55.446Z,19.22
2018-04-25T12:52:04.666Z,19.31
2018-04-25T12:53:13.895Z,19.14
2018-04-25T12:54:23.740Z,19.19
2018-04-25T12:55:33.502Z,19.28
2018-04-25T12:56:42.476Z,19.25
2018-04-25T12:57:51.705Z,19.25
2018-04-25T12:59:01.199Z,19.29
2018-04-25T13:00:10.161Z,19.23
2018-04-25T13:01:19.662Z,19.29
2018-04-25T13:02:29.165Z,19.29
2018-04-25T13:03:38.928Z,19.31
2018-04-25T13:04:48.417Z,19.28
2018-04-25T13:05:57.908Z,19.28
2018-04-25T13:07:07.672Z,19.29
2018-04-25T13:08:17.432Z,19.22
2018-04-25T13:09:26.980Z,19.28
2018-04-25T13:10:36.203Z,19.28
2018-04-25T13:11:45.767Z,19.26
2018-04-25T13:12:55.337Z,19.31
2018-04-25T13:14:04.297Z,19.28
2018-04-25T13:15:14.213Z,19.29
2018-04-25T13:16:23.185Z,19.26
2018-04-25T13:17:32.948Z,19.33
2018-04-25T13:18:42.435Z,19.29
2018-04-25T13:19:51.660Z,19.33
2018-04-25T13:21:01.423Z,19.29
2018-04-25T13:22:10.918Z,19.26
2018-04-25T13:23:20.412Z,19.28
2018-04-25T13:24:29.660Z,19.28
2018-04-25T13:25:39.145Z,19.29
2018-04-25T13:26:48.912Z,19.29
2018-04-25T13:27:58.398Z,19.36
2018-04-25T13:29:07.628Z,19.33
2018-04-25T13:30:17.664Z,19.4
2018-04-25T13:31:26.888Z,19.32
2018-04-25T13:32:36.381Z,19.39
2018-04-25T13:33:45.878Z,19.36
2018-04-25T13:34:55.628Z,19.44
2018-04-25T13:36:05.401Z,19.4
2018-04-25T13:37:14.633Z,19.33
2018-04-25T13:38:24.405Z,19.41
2018-04-25T13:39:33.095Z,19.39
2018-04-25T13:40:42.866Z,19.37
2018-04-25T13:41:52.087Z,19.43
2018-04-25T13:43:01.849Z,19.43
2018-04-25T13:44:11.073Z,19.44
2018-04-25T13:45:21.107Z,19.47
2018-04-25T13:46:30.345Z,19.46
2018-04-25T13:47:40.373Z,19.5
2018-04-25T13:48:49.884Z,19.46
2018-04-25T13:49:58.573Z,19.43
2018-04-25T13:51:07.530Z,19.47
2018-04-25T13:52:17.019Z,19.4
2018-04-25T13:53:26.242Z,19.5
2018-04-25T13:54:35.464Z,19.48
2018-04-25T13:55:44.688Z,19.43
2018-04-25T13:56:54.727Z,19.51
2018-04-25T13:58:04.218Z,19.44
2018-04-25T13:59:13.447Z,19.46
2018-04-25T14:00:22.941Z,19.46
2018-04-25T14:01:32.710Z,19.46
2018-04-25T14:02:42.212Z,19.46
2018-04-25T14:03:51.705Z,19.47
2018-04-25T14:05:00.943Z,19.44
2018-04-25T14:06:10.612Z,19.44
2018-04-25T14:07:20.338Z,19.5
2018-04-25T14:08:30.370Z,19.44
2018-04-25T14:09:39.369Z,19.44
2018-04-25T14:10:48.864Z,19.46
2018-04-25T14:11:58.633Z,19.5
2018-04-25T14:13:08.661Z,19.5
2018-04-25T14:14:18.238Z,19.5
2018-04-25T14:15:27.193Z,19.48
2018-04-25T14:16:36.416Z,19.41
2018-04-25T14:17:45.908Z,19.48
2018-04-25T14:18:55.410Z,19.48
2018-04-25T14:20:04.922Z,19.55
2018-04-25T14:21:14.689Z,19.48
2018-04-25T14:22:24.736Z,19.43
2018-04-25T14:23:34.228Z,19.47
2018-04-25T14:24:44.089Z,19.47
2018-04-25T14:25:53.699Z,19.46
2018-04-25T14:27:03.461Z,19.44
2018-04-25T14:28:12.968Z,19.5
2018-04-25T14:29:22.463Z,19.51
2018-04-25T14:30:32.055Z,19.5
2018-04-25T14:31:41.007Z,19.5
2018-04-25T14:32:50.503Z,19.46
2018-04-25T14:33:59.457Z,19.48
2018-04-25T14:35:09.216Z,19.44
2018-04-25T14:36:18.991Z,19.5
2018-04-25T14:37:28.765Z,19.47
2018-04-25T14:38:38.256Z,19.55
2018-04-25T14:39:47.218Z,19.44
2018-04-25T14:40:56.983Z,19.47
2018-04-25T14:42:06.479Z,19.46
2018-04-25T14:43:15.713Z,19.59
2018-04-25T14:44:25.479Z,19.5
2018-04-25T14:45:35.240Z,19.55
2018-04-25T14:46:44.730Z,19.56
2018-04-25T14:47:54.762Z,19.59
2018-04-25T14:49:03.986Z,19.55
2018-04-25T14:50:13.221Z,19.55
2018-04-25T14:51:22.986Z,19.59
2018-04-25T14:52:32.485Z,19.61
2018-04-25T14:53:41.983Z,19.61
2018-04-25T14:54:51.478Z,19.62
2018-04-25T14:56:00.726Z,19.58
2018-04-25T14:57:10.046Z,19.56
2018-04-25T14:58:19.356Z,19.56
2018-04-25T14:59:28.849Z,19.63
2018-04-25T15:00:38.072Z,19.62